createdAt,value
2023-03-06T00:00:17.611Z,99986.75
2023-03-06T00:02:45.672Z,99983.75
2023-03-06T00:05:14.059Z,99979.91
2023-03-06T00:07:42.701Z,99972.53
2023-03-06T00:10:14.261Z,99970.25
2023-03-06T00:12:42.510Z,99970.53
2023-03-06T00:15:13.092Z,99969.50
2023-03-06T00:17:41.524Z,99960.16
2023-03-06T00:20:11.691Z,99961.50
2023-03-06T00:22:40.034Z,99958.66
2023-03-06T00:25:12.369Z,99952.19
2023-03-06T00:27:40.388Z,99957.03
2023-03-06T00:30:09.841Z,99950.50
2023-03-06T00:32:39.293Z,99949.53
2023-03-06T00:35:08.177Z,99947.84
2023-03-06T00:37:36.884Z,99949.09
2023-03-06T00:40:06.245Z,99940.16
2023-03-06T00:42:34.170Z,99930.22
2023-03-06T00:45:02.086Z,99928.47
2023-03-06T00:47:29.958Z,99921.34
2023-03-06T00:50:00.464Z,99918.75
2023-03-06T00:52:28.466Z,99914.19
2023-03-06T00:54:56.416Z,99925.25
2023-03-06T00:57:24.467Z,99910.56
2023-03-06T00:59:52.385Z,99905.53
2023-03-06T01:02:22.159Z,99895.88
2023-03-06T01:04:50.231Z,99894.16
2023-03-06T01:07:19.458Z,99885.59
2023-03-06T01:09:47.350Z,99879.25
2023-03-06T01:12:16.145Z,99879.03
2023-03-06T01:14:44.090Z,99880.56
2023-03-06T01:17:12.142Z,99870.50
2023-03-06T01:19:40.069Z,99857.28
2023-03-06T01:22:07.976Z,99864.69
2023-03-06T01:24:37.211Z,99849.47
2023-03-06T01:27:05.112Z,99852.66
2023-03-06T01:29:33.061Z,99838.81
2023-03-06T01:32:01.006Z,99840.50
2023-03-06T01:34:29.095Z,99834.44
2023-03-06T01:36:56.958Z,99825.69
2023-03-06T01:39:25.002Z,99819.00
2023-03-06T01:41:54.512Z,99810.72
2023-03-06T01:44:23.344Z,99816.13
2023-03-06T01:46:51.324Z,99801.09
2023-03-06T01:49:22.108Z,99796.56
2023-03-06T01:51:53.982Z,99797.69
2023-03-06T01:54:25.032Z,99796.88
2023-03-06T01:56:57.695Z,99789.06
2023-03-06T01:59:27.516Z,99792.06
2023-03-06T02:01:57.030Z,99778.06
2023-03-06T02:04:25.681Z,99781.91
2023-03-06T02:06:53.934Z,99780.75
2023-03-06T02:09:21.874Z,99783.31
2023-03-06T02:11:50.654Z,99778.75
2023-03-06T02:14:19.935Z,99768.03
2023-03-06T02:16:48.926Z,99769.00
2023-03-06T02:19:29.469Z,99771.44
2023-03-06T02:21:57.733Z,99764.59
2023-03-06T02:24:36.040Z,99772.06
2023-03-06T02:27:06.745Z,99764.00
2023-03-06T02:29:34.741Z,99758.84
2023-03-06T02:32:04.714Z,99752.88
2023-03-06T02:34:51.539Z,99747.94
2023-03-06T02:37:19.829Z,99750.22
2023-03-06T02:39:53.036Z,99752.72
2023-03-06T02:42:25.911Z,99749.06
2023-03-06T02:44:56.689Z,99746.47
2023-03-06T02:47:24.603Z,99740.97
2023-03-06T02:49:52.583Z,99739.88
2023-03-06T02:52:20.548Z,99739.50
2023-03-06T02:54:48.618Z,99735.16
2023-03-06T02:57:16.705Z,99728.00
2023-03-06T02:59:45.990Z,99722.50
2023-03-06T03:02:13.975Z,99722.16
2023-03-06T03:04:41.905Z,99718.16
2023-03-06T03:07:10.388Z,99723.50
2023-03-06T03:09:38.993Z,99726.09
2023-03-06T03:12:07.779Z,99723.78
2023-03-06T03:14:36.004Z,99719.19
2023-03-06T03:17:05.952Z,99715.50
2023-03-06T03:19:33.905Z,99717.25
2023-03-06T03:22:01.952Z,99720.53
2023-03-06T03:24:29.889Z,99711.31
2023-03-06T03:26:57.852Z,99709.16
2023-03-06T03:29:26.520Z,99718.69
2023-03-06T03:31:55.273Z,99705.47
2023-03-06T03:34:27.552Z,99707.38
2023-03-06T03:36:55.777Z,99708.75
2023-03-06T03:39:24.047Z,99701.44
2023-03-06T03:41:52.058Z,99709.84
2023-03-06T03:44:20.752Z,99706.31
2023-03-06T03:46:49.678Z,99696.59
2023-03-06T03:49:21.642Z,99700.63
2023-03-06T03:51:51.328Z,99703.88
2023-03-06T03:54:20.183Z,99703.56
2023-03-06T03:56:50.376Z,99697.72
2023-03-06T03:59:24.438Z,99698.94
2023-03-06T04:02:18.424Z,99701.63
2023-03-06T04:04:54.182Z,99695.66
2023-03-06T04:07:23.682Z,99693.81
2023-03-06T04:09:51.793Z,99693.72
2023-03-06T04:12:20.028Z,99703.38
2023-03-06T04:14:48.562Z,99712.84
2023-03-06T04:17:16.745Z,99719.94
2023-03-06T04:19:45.412Z,99718.03
2023-03-06T04:22:13.508Z,99711.59
2023-03-06T04:24:42.963Z,99716.63
2023-03-06T04:27:11.180Z,99721.19
2023-03-06T04:29:39.104Z,99723.22
2023-03-06T04:32:08.005Z,99726.13
2023-03-06T04:34:36.035Z,99734.16
2023-03-06T04:37:04.071Z,99726.03
2023-03-06T04:39:34.183Z,99725.47
2023-03-06T04:42:03.663Z,99725.06
2023-03-06T04:44:31.543Z,99727.78
2023-03-06T04:46:59.410Z,99734.41
2023-03-06T04:49:27.291Z,99727.44
2023-03-06T04:51:55.140Z,99736.47
2023-03-06T04:54:23.077Z,99740.47
2023-03-06T04:56:51.051Z,99738.81
2023-03-06T04:59:20.350Z,99731.94
2023-03-06T05:01:48.293Z,99737.28
2023-03-06T05:04:16.227Z,99725.72
2023-03-06T05:06:44.172Z,99736.00
2023-03-06T05:09:12.132Z,99741.19
2023-03-06T05:11:40.010Z,99731.28
2023-03-06T05:14:07.971Z,99729.28
2023-03-06T05:16:37.329Z,99734.13
2023-03-06T05:19:05.306Z,99737.47
2023-03-06T05:21:33.196Z,99739.22
2023-03-06T05:24:01.077Z,99740.44
2023-03-06T05:26:28.999Z,99747.53
2023-03-06T05:28:56.904Z,99741.97
2023-03-06T05:31:24.957Z,99745.78
2023-03-06T05:33:56.201Z,99743.50
2023-03-06T05:36:24.137Z,99746.63
2023-03-06T05:38:52.054Z,99751.44
2023-03-06T05:41:20.042Z,99751.75
2023-03-06T05:43:48.565Z,99753.56
2023-03-06T05:46:16.530Z,99751.56
2023-03-06T05:48:46.784Z,99754.25
2023-03-06T05:51:16.364Z,99752.56
2023-03-06T05:53:44.332Z,99754.09
2023-03-06T05:56:12.324Z,99757.66
2023-03-06T05:58:40.852Z,99755.38
2023-03-06T06:01:10.907Z,99757.16
2023-03-06T06:03:39.220Z,99755.59
2023-03-06T06:06:08.820Z,99760.25
2023-03-06T06:08:38.261Z,99755.69
2023-03-06T06:11:06.670Z,99752.56
2023-03-06T06:13:34.747Z,99750.59
2023-03-06T06:16:08.559Z,99751.88
2023-03-06T06:18:37.316Z,99755.94
2023-03-06T06:21:07.813Z,99753.88
2023-03-06T06:23:35.925Z,99761.63
2023-03-06T06:26:07.798Z,99764.16
2023-03-06T06:28:36.085Z,99767.44
2023-03-06T06:31:10.947Z,99760.19
2023-03-06T06:33:39.100Z,99769.41
2023-03-06T06:36:15.294Z,99767.97
2023-03-06T06:38:44.173Z,99772.59
2023-03-06T06:44:07.247Z,99770.38
2023-03-06T06:47:20.738Z,99771.53
2023-03-06T06:49:25.226Z,99772.28
2023-03-06T06:51:53.167Z,99774.97
2023-03-06T06:54:22.319Z,99774.66
2023-03-06T06:56:51.707Z,99774.88
2023-03-06T06:59:19.718Z,99778.06
2023-03-06T07:01:47.810Z,99784.41
2023-03-06T07:04:19.096Z,99776.97
2023-03-06T07:06:47.697Z,99774.03
2023-03-06T07:09:16.088Z,99779.31
2023-03-06T07:11:46.384Z,99776.31
2023-03-06T07:14:15.827Z,99777.56
2023-03-06T07:16:45.403Z,99774.81
2023-03-06T07:19:14.407Z,99776.19
2023-03-06T07:21:42.362Z,99774.19
2023-03-06T07:24:13.370Z,99780.03
2023-03-06T07:26:41.221Z,99768.19
2023-03-06T07:29:09.077Z,99777.22
2023-03-06T07:31:38.669Z,99778.25
2023-03-06T07:34:06.674Z,99782.13
2023-03-06T07:36:34.885Z,99778.94
2023-03-06T07:39:02.834Z,99781.81
2023-03-06T07:41:30.736Z,99784.88
2023-03-06T07:43:58.718Z,99777.84
2023-03-06T07:46:26.854Z,99783.56
2023-03-06T07:48:56.437Z,99783.88
2023-03-06T07:51:27.012Z,99783.63
2023-03-06T07:53:55.379Z,99785.56
2023-03-06T07:56:24.247Z,99784.03
2023-03-06T07:58:56.112Z,99777.25
2023-03-06T08:01:25.043Z,99784.09
2023-03-06T08:03:53.673Z,99783.09
2023-03-06T08:06:27.814Z,99783.34
2023-03-06T08:08:56.975Z,99784.69
2023-03-06T08:11:26.695Z,99789.59
2023-03-06T08:13:56.567Z,99785.47
2023-03-06T08:16:27.631Z,99784.63
2023-03-06T08:18:56.145Z,99783.78
2023-03-06T08:21:26.906Z,99788.66
2023-03-06T08:23:57.222Z,99781.88
2023-03-06T08:26:27.677Z,99781.97
2023-03-06T08:28:57.196Z,99782.72
2023-03-06T08:31:27.990Z,99784.84
2023-03-06T08:33:57.602Z,99796.28
2023-03-06T08:36:27.097Z,99789.78
2023-03-06T08:38:55.436Z,99785.84
2023-03-06T08:41:23.850Z,99787.97
2023-03-06T08:43:52.537Z,99801.47
2023-03-06T08:46:23.263Z,99796.38
2023-03-06T08:48:51.229Z,99792.09
2023-03-06T08:51:19.517Z,99795.38
2023-03-06T08:53:49.290Z,99795.91
2023-03-06T08:56:19.090Z,99804.13
2023-03-06T08:58:47.982Z,99805.44
2023-03-06T09:01:18.214Z,99804.66
2023-03-06T09:03:46.789Z,99802.59
2023-03-06T09:06:15.600Z,99807.66
2023-03-06T09:08:44.570Z,99813.75
2023-03-06T09:11:16.748Z,99811.38
2023-03-06T09:13:45.152Z,99805.50
2023-03-06T09:16:13.699Z,99812.75
2023-03-06T09:18:41.745Z,99814.56
2023-03-06T09:21:10.617Z,99808.38
2023-03-06T09:23:40.014Z,99803.75
2023-03-06T09:26:08.745Z,99811.06
2023-03-06T09:28:39.250Z,99793.09
2023-03-06T09:31:10.319Z,99808.47
2023-03-06T09:33:40.025Z,99796.13
2023-03-06T09:36:11.373Z,99804.66
2023-03-06T09:38:39.456Z,99806.66
2023-03-06T09:41:16.206Z,99808.56
2023-03-06T09:43:48.100Z,99802.94
2023-03-06T09:46:22.906Z,99813.50
2023-03-06T09:49:10.270Z,99803.75
2023-03-06T09:51:52.430Z,99813.69
2023-03-06T09:54:27.785Z,99803.69
2023-03-06T09:56:56.220Z,99803.47
2023-03-06T09:59:27.106Z,99815.09
2023-03-06T10:02:00.912Z,99809.91
2023-03-06T10:04:37.776Z,99804.44
2023-03-06T10:07:13.070Z,99806.19
2023-03-06T10:09:47.734Z,99816.31
2023-03-06T10:12:20.206Z,99811.06
2023-03-06T10:15:00.743Z,99807.56
2023-03-06T10:17:35.540Z,99804.44
2023-03-06T10:20:16.364Z,99814.78
2023-03-06T10:23:01.409Z,99810.00
2023-03-06T10:25:37.884Z,99807.78
2023-03-06T10:28:16.554Z,99811.06
2023-03-06T10:30:52.597Z,99810.47
2023-03-06T10:33:34.301Z,99807.50
2023-03-06T10:36:02.623Z,99811.22
2023-03-06T10:38:37.651Z,99814.28
2023-03-06T10:41:09.353Z,99817.78
2023-03-06T10:43:38.914Z,99812.59
2023-03-06T10:46:10.285Z,99811.69
2023-03-06T10:48:42.014Z,99805.72
2023-03-06T10:51:19.443Z,99810.53
2023-03-06T10:53:53.718Z,99815.09
2023-03-06T10:56:29.228Z,99814.72
2023-03-06T10:59:09.134Z,99813.59
2023-03-06T11:01:39.747Z,99807.34
2023-03-06T11:04:24.153Z,99815.88
2023-03-06T11:07:14.446Z,99813.50
2023-03-06T11:09:43.246Z,99803.28
2023-03-06T11:12:25.994Z,99811.25
2023-03-06T11:15:17.431Z,99810.16
2023-03-06T11:18:02.822Z,99803.59
2023-03-06T11:20:50.146Z,99803.38
2023-03-06T11:23:22.756Z,99807.78
2023-03-06T11:25:56.168Z,99806.56
2023-03-06T11:28:29.846Z,99799.69
2023-03-06T11:31:03.089Z,99801.44
2023-03-06T11:33:39.664Z,99795.06
2023-03-06T11:36:16.994Z,99793.94
2023-03-06T11:38:50.070Z,99797.31
2023-03-06T11:41:27.902Z,99794.25
2023-03-06T11:44:04.442Z,99790.47
2023-03-06T11:46:38.064Z,99796.50
2023-03-06T11:49:18.140Z,99794.94
2023-03-06T11:51:55.751Z,99790.75
2023-03-06T11:54:24.324Z,99782.25
2023-03-06T11:56:57.690Z,99783.94
2023-03-06T12:00:00.012Z,99789.28
2023-03-06T12:02:40.327Z,99775.50
2023-03-06T12:05:33.773Z,99782.25
2023-03-06T12:08:16.142Z,99785.53
2023-03-06T12:10:51.898Z,99782.72
2023-03-06T12:13:59.513Z,99783.72
2023-03-06T12:16:54.164Z,99774.59
2023-03-06T12:19:34.241Z,99776.09
2023-03-06T12:22:22.464Z,99782.38
2023-03-06T12:25:20.283Z,99773.34
2023-03-06T12:27:59.365Z,99781.06
2023-03-06T12:30:54.754Z,99772.59
2023-03-06T12:33:29.988Z,99776.78
2023-03-06T12:36:13.275Z,99770.72
2023-03-06T12:39:08.402Z,99770.56
2023-03-06T12:41:41.652Z,99770.88
2023-03-06T12:44:49.984Z,99770.78
2023-03-06T12:47:22.859Z,99770.28
2023-03-06T12:49:55.941Z,99773.25
2023-03-06T12:52:30.308Z,99771.97
2023-03-06T12:55:00.934Z,99772.81
2023-03-06T12:57:29.162Z,99772.66
2023-03-06T13:00:00.037Z,99773.78
2023-03-06T13:02:59.359Z,99776.38
2023-03-06T13:05:48.345Z,99766.28
2023-03-06T13:08:52.754Z,99771.97
2023-03-06T13:11:31.652Z,99766.31
2023-03-06T13:13:59.687Z,99763.59
2023-03-06T13:16:31.671Z,99761.94
2023-03-06T13:19:04.874Z,99755.94
2023-03-06T13:22:14.318Z,99762.06
2023-03-06T13:24:43.901Z,99757.16
2023-03-06T13:27:33.891Z,99758.72
2023-03-06T13:30:24.308Z,99756.13
2023-03-06T13:32:53.798Z,99756.28
2023-03-06T13:35:52.504Z,99745.72
2023-03-06T13:39:04.889Z,99750.88
2023-03-06T13:41:55.015Z,99740.38
2023-03-06T13:44:50.775Z,99744.28
2023-03-06T13:48:05.864Z,99741.59
2023-03-06T13:50:41.030Z,99738.50
2023-03-06T13:53:41.715Z,99737.03
2023-03-06T13:56:36.151Z,99747.81
2023-03-06T13:59:27.002Z,99747.41
2023-03-06T14:02:10.400Z,99741.31
2023-03-06T14:04:45.139Z,99747.00
2023-03-06T14:07:25.817Z,99741.13
2023-03-06T14:10:02.162Z,99745.38
2023-03-06T14:12:34.919Z,99743.72
2023-03-06T14:15:07.191Z,99748.38
2023-03-06T14:17:39.348Z,99741.78
2023-03-06T14:20:16.555Z,99730.47
2023-03-06T14:22:45.208Z,99733.22
2023-03-06T14:25:20.773Z,99738.16
2023-03-06T14:27:51.439Z,99733.50
2023-03-06T14:30:24.223Z,99735.81
2023-03-06T14:32:56.172Z,99734.88
2023-03-06T14:35:28.579Z,99731.75
2023-03-06T14:38:00.645Z,99735.94
2023-03-06T14:40:35.150Z,99735.28
2023-03-06T14:43:20.786Z,99735.38
2023-03-06T14:45:54.822Z,99731.28
2023-03-06T14:48:25.791Z,99727.28
2023-03-06T14:50:56.529Z,99727.38
2023-03-06T14:53:28.288Z,99731.84
2023-03-06T14:56:00.051Z,99723.66
2023-03-06T14:58:32.360Z,99735.72
2023-03-06T15:01:04.761Z,99726.66
2023-03-06T15:03:43.801Z,99729.16
2023-03-06T15:06:16.672Z,99726.66
2023-03-06T15:08:47.109Z,99727.84
2023-03-06T15:11:15.623Z,99726.63
2023-03-06T15:13:43.634Z,99723.09
2023-03-06T15:16:30.159Z,99718.97
2023-03-06T15:19:02.376Z,99718.50
2023-03-06T15:21:35.891Z,99732.56
2023-03-06T15:24:26.146Z,99718.41
2023-03-06T15:26:56.912Z,99724.53
2023-03-06T15:29:25.009Z,99735.34
2023-03-06T15:31:53.031Z,99728.72
2023-03-06T15:34:24.761Z,99729.03
2023-03-06T15:36:55.700Z,99727.75
2023-03-06T15:39:36.340Z,99716.84
2023-03-06T15:42:17.981Z,99722.59
2023-03-06T15:44:49.803Z,99717.91
2023-03-06T15:47:18.284Z,99711.41
2023-03-06T15:49:51.722Z,99718.06
2023-03-06T15:52:20.817Z,99720.34
2023-03-06T15:54:50.010Z,99719.22
2023-03-06T15:57:22.981Z,99721.44
2023-03-06T15:59:52.295Z,99717.88
2023-03-06T16:02:21.749Z,99719.09
2023-03-06T16:04:51.909Z,99716.84
2023-03-06T16:07:20.533Z,99716.13
2023-03-06T16:09:48.688Z,99719.28
2023-03-06T16:12:18.658Z,99711.69
2023-03-06T16:14:48.242Z,99720.84
2023-03-06T16:17:17.747Z,99717.72
2023-03-06T16:19:45.881Z,99715.31
2023-03-06T16:22:15.767Z,99711.72
2023-03-06T16:24:43.774Z,99710.69
2023-03-06T16:27:18.612Z,99712.72
2023-03-06T16:29:46.603Z,99716.25
2023-03-06T16:32:14.682Z,99710.53
2023-03-06T16:34:42.637Z,99708.56
2023-03-06T16:37:13.845Z,99713.38
2023-03-06T16:39:43.591Z,99710.25
2023-03-06T16:42:11.664Z,99703.94
2023-03-06T16:44:39.692Z,99709.63
2023-03-06T16:47:13.292Z,99705.69
2023-03-06T16:49:41.400Z,99711.44
2023-03-06T16:52:10.973Z,99711.25
2023-03-06T16:54:38.965Z,99708.94
2023-03-06T16:57:08.463Z,99703.44
2023-03-06T16:59:36.529Z,99715.50
2023-03-06T17:02:05.010Z,99714.25
2023-03-06T17:04:33.151Z,99718.09
2023-03-06T17:07:01.128Z,99719.34
2023-03-06T17:09:29.328Z,99723.28
2023-03-06T17:11:59.734Z,99719.53
2023-03-06T17:14:29.825Z,99729.41
2023-03-06T17:16:58.704Z,99741.53
2023-03-06T17:19:26.675Z,99737.69
2023-03-06T17:21:54.674Z,99736.44
2023-03-06T17:24:22.746Z,99741.25
2023-03-06T17:26:51.296Z,99744.13
2023-03-06T17:29:19.568Z,99747.44
2023-03-06T17:31:49.258Z,99744.44
2023-03-06T17:34:17.328Z,99739.59
2023-03-06T17:36:45.622Z,99743.91
2023-03-06T17:39:13.830Z,99753.84
2023-03-06T17:41:46.274Z,99744.84
2023-03-06T17:44:16.379Z,99752.06
2023-03-06T17:46:44.769Z,99755.09
2023-03-06T17:49:14.120Z,99755.94
2023-03-06T17:51:42.039Z,99751.84
2023-03-06T17:54:10.106Z,99753.50
2023-03-06T17:56:38.892Z,99759.19
2023-03-06T17:59:06.816Z,99764.97
2023-03-06T18:01:34.945Z,99758.78
2023-03-06T18:04:08.831Z,99760.25
2023-03-06T18:06:38.623Z,99754.47
2023-03-06T18:09:13.671Z,99760.28
2023-03-06T18:11:42.239Z,99748.00
2023-03-06T18:14:10.526Z,99760.72
2023-03-06T18:16:38.575Z,99761.88
2023-03-06T18:19:06.731Z,99756.16
2023-03-06T18:21:34.642Z,99760.47
2023-03-06T18:24:04.050Z,99758.56
2023-03-06T18:26:32.140Z,99761.50
2023-03-06T18:29:03.689Z,99758.84
2023-03-06T18:31:34.714Z,99756.72
2023-03-06T18:34:05.718Z,99756.09
2023-03-06T18:36:34.310Z,99756.53
2023-03-06T18:39:04.670Z,99752.56
2023-03-06T18:41:33.121Z,99759.69
2023-03-06T18:44:01.953Z,99759.00
2023-03-06T18:46:32.291Z,99758.38
2023-03-06T18:49:00.773Z,99755.16
2023-03-06T18:51:29.104Z,99754.66
2023-03-06T18:53:58.241Z,99754.72
2023-03-06T18:56:27.555Z,99758.09
2023-03-06T18:58:55.629Z,99758.31
2023-03-06T19:01:24.204Z,99756.00
2023-03-06T19:03:52.202Z,99762.63
2023-03-06T19:06:20.247Z,99759.34
2023-03-06T19:08:48.164Z,99755.56
2023-03-06T19:11:18.017Z,99761.22
2023-03-06T19:13:47.311Z,99758.91
2023-03-06T19:16:19.598Z,99754.72
2023-03-06T19:18:47.763Z,99760.69
2023-03-06T19:21:17.585Z,99754.81
2023-03-06T19:23:45.968Z,99755.00
2023-03-06T19:26:15.135Z,99753.13
2023-03-06T19:28:44.229Z,99758.31
2023-03-06T19:31:16.163Z,99751.56
2023-03-06T19:33:44.243Z,99750.66
2023-03-06T19:36:14.384Z,99751.28
2023-03-06T19:38:42.461Z,99746.56
2023-03-06T19:41:13.579Z,99751.72
2023-03-06T19:43:42.470Z,99747.53
2023-03-06T19:46:14.227Z,99739.91
2023-03-06T19:48:42.436Z,99748.94
2023-03-06T19:51:18.138Z,99745.56
2023-03-06T19:53:46.161Z,99742.00
2023-03-06T19:56:18.783Z,99747.25
2023-03-06T19:58:46.780Z,99755.22
2023-03-06T20:01:17.834Z,99742.47
2023-03-06T20:03:50.494Z,99746.97
2023-03-06T20:06:22.159Z,99754.72
2023-03-06T20:08:50.280Z,99751.63
2023-03-06T20:11:19.110Z,99746.00
2023-03-06T20:13:47.904Z,99745.13
2023-03-06T20:16:17.815Z,99746.91
2023-03-06T20:18:46.451Z,99736.88
2023-03-06T20:21:17.309Z,99736.59
2023-03-06T20:23:45.304Z,99737.31
2023-03-06T20:26:14.839Z,99746.81
2023-03-06T20:28:43.627Z,99738.94
2023-03-06T20:31:14.230Z,99734.72
2023-03-06T20:33:44.278Z,99736.69
2023-03-06T20:36:13.950Z,99738.28
2023-03-06T20:38:41.978Z,99732.03
2023-03-06T20:41:15.269Z,99725.00
2023-03-06T20:43:43.446Z,99719.31
2023-03-06T20:46:13.313Z,99721.97
2023-03-06T20:48:42.974Z,99717.34
2023-03-06T20:51:17.408Z,99720.91
2023-03-06T20:53:45.553Z,99711.19
2023-03-06T20:56:14.314Z,99706.00
2023-03-06T20:58:44.345Z,99703.31
2023-03-06T21:01:19.394Z,99702.72
2023-03-06T21:03:49.221Z,99701.16
2023-03-06T21:06:17.727Z,99698.44
2023-03-06T21:08:45.900Z,99700.63
2023-03-06T21:11:14.314Z,99688.84
2023-03-06T21:13:42.705Z,99688.69
2023-03-06T21:16:17.943Z,99697.44
2023-03-06T21:18:46.299Z,99690.56
2023-03-06T21:21:20.807Z,99693.69
2023-03-06T21:23:49.717Z,99694.97
2023-03-06T21:26:19.768Z,99686.34
2023-03-06T21:28:47.796Z,99679.44
2023-03-06T21:31:17.687Z,99681.25
2023-03-06T21:33:46.669Z,99668.41
2023-03-06T21:36:16.711Z,99669.38
2023-03-06T21:38:44.580Z,99669.94
2023-03-06T21:41:14.986Z,99661.19
2023-03-06T21:43:43.194Z,99655.53
2023-03-06T21:46:11.434Z,99663.06
2023-03-06T21:48:39.953Z,99659.22
2023-03-06T21:51:09.996Z,99656.34
2023-03-06T21:53:43.288Z,99658.78
2023-03-06T21:56:11.876Z,99662.03
2023-03-06T21:58:40.318Z,99658.03
2023-03-06T22:01:12.168Z,99655.13
2023-03-06T22:03:40.504Z,99659.50
2023-03-06T22:06:13.474Z,99660.16
2023-03-06T22:08:43.366Z,99659.25
2023-03-06T22:11:14.349Z,99653.50
2023-03-06T22:13:42.474Z,99648.16
2023-03-06T22:16:10.797Z,99651.75
2023-03-06T22:18:39.804Z,99647.25
2023-03-06T22:21:08.919Z,99642.09
2023-03-06T22:23:36.913Z,99641.69
2023-03-06T22:26:07.930Z,99635.75
2023-03-06T22:28:36.389Z,99635.38
2023-03-06T22:31:07.202Z,99633.81
2023-03-06T22:33:35.172Z,99618.88
2023-03-06T22:36:06.199Z,99619.13
2023-03-06T22:38:35.550Z,99614.88
2023-03-06T22:41:04.437Z,99617.91
2023-03-06T22:43:34.641Z,99614.06
2023-03-06T22:46:03.662Z,99616.75
2023-03-06T22:48:32.399Z,99607.28
2023-03-06T22:51:05.901Z,99604.94
2023-03-06T22:53:34.677Z,99597.00
2023-03-06T22:56:04.833Z,99594.69
2023-03-06T22:58:37.196Z,99590.59
2023-03-06T23:01:10.226Z,99582.59
2023-03-06T23:03:39.652Z,99579.50
2023-03-06T23:06:08.902Z,99586.72
2023-03-06T23:08:37.011Z,99572.13
2023-03-06T23:11:09.909Z,99574.84
2023-03-06T23:13:57.931Z,99571.50
2023-03-06T23:16:44.643Z,99563.00
2023-03-06T23:19:31.616Z,99566.53
2023-03-06T23:22:18.401Z,99567.63
2023-03-06T23:25:05.945Z,99565.94
2023-03-06T23:27:36.223Z,99571.69
2023-03-06T23:30:06.426Z,99570.81
2023-03-06T23:32:34.659Z,99565.56
2023-03-06T23:35:02.849Z,99564.34
2023-03-06T23:37:30.940Z,99561.78
2023-03-06T23:39:59.123Z,99558.50
2023-03-06T23:42:27.014Z,99554.75
2023-03-06T23:44:55.165Z,99556.53
2023-03-06T23:47:24.459Z,99559.13
2023-03-06T23:49:52.365Z,99538.19
2023-03-06T23:52:20.213Z,99541.41
2023-03-06T23:54:49.737Z,99540.06
2023-03-06T23:57:17.658Z,99542.19
2023-03-06T23:59:46.152Z,99545.41
